createdAt,value
2019-04-10T00:00:02.362Z,225.00
2019-04-10T00:05:01.289Z,195.17
2019-04-10T00:10:01.129Z,90.00
2019-04-10T00:15:01.137Z,90.00
2019-04-10T00:20:02.314Z,64.23
2019-04-10T00:25:02.312Z,90.00
2019-04-10T00:30:01.122Z,90.00
2019-04-10T00:35:02.410Z,90.00
2019-04-10T00:40:03.367Z,90.00
2019-04-10T00:45:02.004Z,97.04
2019-04-10T00:50:02.273Z,90.00
2019-04-10T00:55:01.501Z,90.00
2019-04-10T01:00:01.089Z,90.00
2019-04-10T01:05:01.036Z,276.25
2019-04-10T01:10:02.090Z,90.00
2019-04-10T01:15:01.107Z,90.00
2019-04-10T01:20:01.203Z,90.00
2019-04-10T01:25:02.217Z,90.00
2019-04-10T01:30:02.246Z,90.00
2019-04-10T01:35:02.335Z,90.00
2019-04-10T01:40:01.150Z,90.00
2019-04-10T01:45:01.086Z,162.31
2019-04-10T01:50:02.288Z,225.00
2019-04-10T01:55:03.164Z,225.00
2019-04-10T02:00:01.184Z,45.00
2019-04-10T02:05:01.413Z,45.00
2019-04-10T02:10:01.624Z,45.00
2019-04-10T02:15:01.079Z,45.00
2019-04-10T02:20:01.077Z,45.00
2019-04-10T02:25:01.364Z,45.00
2019-04-10T02:30:01.259Z,45.00
2019-04-10T02:35:01.406Z,45.00
2019-04-10T03:20:02.410Z,315.00
2019-04-10T03:25:02.607Z,315.00
2019-04-10T03:30:02.942Z,43.23
2019-04-10T03:35:01.150Z,90.00
2019-04-10T03:40:01.100Z,90.00
2019-04-10T03:45:01.410Z,36.47
2019-04-10T03:50:01.099Z,90.00
2019-04-10T03:55:01.325Z,90.00
2019-04-10T04:00:01.556Z,90.00
2019-04-10T04:05:02.593Z,90.00
2019-04-10T04:10:01.063Z,90.00
2019-04-10T04:15:02.236Z,90.00
2019-04-10T04:20:02.418Z,90.00
2019-04-10T04:25:01.067Z,90.00
2019-04-10T04:30:01.087Z,90.00
2019-04-10T04:35:02.402Z,90.00
2019-04-10T04:40:01.111Z,89.75
2019-04-10T04:45:01.148Z,315.00
2019-04-10T04:50:02.006Z,280.49
2019-04-10T04:55:02.011Z,225.00
2019-04-10T05:00:01.227Z,225.00
2019-04-10T05:05:01.132Z,215.98
2019-04-10T05:10:02.084Z,90.00
2019-04-10T05:15:01.061Z,90.00
2019-04-10T05:20:01.123Z,90.00
2019-04-10T05:25:01.145Z,90.00
2019-04-10T05:30:02.330Z,34.60
2019-04-10T05:35:02.815Z,0.00
2019-04-10T05:40:01.580Z,41.59
2019-04-10T05:45:01.447Z,90.00
2019-04-10T05:50:02.007Z,90.00
2019-04-10T05:55:02.156Z,90.00
2019-04-10T06:00:01.119Z,132.11
2019-04-10T06:05:02.229Z,135.00
2019-04-10T06:10:05.073Z,135.00
2019-04-10T06:15:02.328Z,135.00
2019-04-10T06:20:01.047Z,119.24
2019-04-10T06:25:01.088Z,91.38
2019-04-10T06:30:01.948Z,92.74
2019-04-10T06:35:01.938Z,114.96
2019-04-10T06:40:10.792Z,127.77
2019-04-10T06:45:01.060Z,90.00
2019-04-10T06:50:02.456Z,90.00
2019-04-10T06:55:01.149Z,134.76
2019-04-10T07:00:02.397Z,135.00
2019-04-10T07:05:05.719Z,135.00
2019-04-10T07:10:02.242Z,103.09
2019-04-10T07:15:02.200Z,134.51
2019-04-10T07:20:01.954Z,225.00
2019-04-10T07:25:01.086Z,225.00
2019-04-10T07:30:01.617Z,253.51
2019-04-10T07:35:03.023Z,315.00
2019-04-10T07:40:04.264Z,315.00
2019-04-10T07:45:01.104Z,315.00
2019-04-10T07:50:02.226Z,0.47
2019-04-10T07:55:01.418Z,152.47
2019-04-10T08:00:01.454Z,180.00
2019-04-10T08:05:02.280Z,180.00
2019-04-10T08:10:01.428Z,180.00
2019-04-10T08:15:01.335Z,180.00
2019-04-10T08:20:01.611Z,180.00
2019-04-10T08:25:02.389Z,101.67
2019-04-10T08:30:01.232Z,90.00
2019-04-10T08:35:01.076Z,94.48
2019-04-10T08:40:01.087Z,108.52
2019-04-10T08:45:01.574Z,101.44
2019-04-10T08:50:01.455Z,225.00
2019-04-10T08:55:01.884Z,225.00
2019-04-10T09:00:01.073Z,225.00
2019-04-10T09:05:01.555Z,213.63
2019-04-10T09:10:01.877Z,135.00
2019-04-10T09:15:01.551Z,135.00
2019-04-10T09:20:01.055Z,123.70
2019-04-10T09:25:02.721Z,133.18
2019-04-10T09:30:01.116Z,135.00
2019-04-10T09:35:01.069Z,135.00
2019-04-10T09:40:01.447Z,135.00
2019-04-10T09:45:01.107Z,135.00
2019-04-10T09:50:02.239Z,135.00
2019-04-10T09:55:01.524Z,135.00
2019-04-10T10:00:01.073Z,135.00
2019-04-10T10:05:02.256Z,135.00
2019-04-10T10:10:01.629Z,135.00
2019-04-10T10:15:02.419Z,106.56
2019-04-10T10:20:01.880Z,90.00
2019-04-10T10:25:01.084Z,90.00
2019-04-10T10:30:02.209Z,74.74
2019-04-10T10:35:01.128Z,0.00
2019-04-10T10:40:01.322Z,323.79
2019-04-10T10:45:02.787Z,180.00
2019-04-10T10:50:01.149Z,104.06
2019-04-10T10:55:01.119Z,146.35
2019-04-10T11:00:02.091Z,225.00
2019-04-10T11:05:04.987Z,225.00
2019-04-10T11:10:01.449Z,299.55
2019-04-10T11:15:02.253Z,305.69
2019-04-10T11:20:02.352Z,289.79
2019-04-10T11:25:01.556Z,273.94
2019-04-10T11:30:03.050Z,265.04
2019-04-10T11:35:03.157Z,0.00
2019-04-10T11:40:01.439Z,0.00
2019-04-10T11:45:01.844Z,0.00
2019-04-10T11:50:03.408Z,360.00
2019-04-10T11:55:10.582Z,180.00
2019-04-10T12:00:04.105Z,211.56
2019-04-10T12:05:07.455Z,134.44
2019-04-10T12:15:01.912Z,16.42
2019-04-10T12:20:02.819Z,45.00
2019-04-10T12:25:02.852Z,225.00
2019-04-10T12:30:01.068Z,313.06
2019-04-10T12:35:01.551Z,303.87
2019-04-10T12:40:01.402Z,315.96
2019-04-10T12:45:01.971Z,315.00
2019-04-10T12:50:01.060Z,95.82
2019-04-10T12:55:01.969Z,52.85
2019-04-10T13:00:04.045Z,225.00
2019-04-10T13:05:01.090Z,216.35
2019-04-10T13:10:01.039Z,58.38
2019-04-10T13:15:01.309Z,315.00
2019-04-10T13:20:01.834Z,316.72
2019-04-10T13:25:01.833Z,65.49
2019-04-10T13:30:01.163Z,66.63
2019-04-10T13:35:01.798Z,347.35
2019-04-10T13:40:01.609Z,67.47
2019-04-10T13:45:01.059Z,56.25
2019-04-10T13:50:02.280Z,90.00
2019-04-10T13:55:01.141Z,88.64
2019-04-10T14:00:01.709Z,31.08
2019-04-10T14:05:01.033Z,90.19
2019-04-10T14:10:01.081Z,103.78
2019-04-10T14:15:01.554Z,32.01
2019-04-10T14:20:01.068Z,100.50
2019-04-10T14:25:01.049Z,38.77
2019-04-10T14:30:01.414Z,300.57
2019-04-10T14:35:01.130Z,262.15
2019-04-10T14:40:02.122Z,230.06
2019-04-10T14:45:01.502Z,215.26
2019-04-10T14:50:01.980Z,308.07
2019-04-10T14:55:02.104Z,276.15
2019-04-10T15:00:01.138Z,357.35
2019-04-10T15:05:01.641Z,24.89
2019-04-10T15:10:01.089Z,83.92
2019-04-10T15:15:01.761Z,245.23
2019-04-10T15:20:01.039Z,93.09
2019-04-10T15:25:01.499Z,90.00
2019-04-10T15:30:02.067Z,90.00
2019-04-10T15:35:02.173Z,80.71
2019-04-10T15:40:11.473Z,267.57
2019-04-10T15:45:01.131Z,294.33
2019-04-10T15:50:02.057Z,298.08
2019-04-10T15:55:01.554Z,245.39
2019-04-10T16:00:01.219Z,315.00
2019-04-10T16:05:01.455Z,285.34
2019-04-10T16:10:03.350Z,306.79
2019-04-10T16:15:02.878Z,315.00
2019-04-10T16:20:02.161Z,302.88
2019-04-10T16:25:01.205Z,180.00
2019-04-10T16:30:03.043Z,180.00
2019-04-10T16:35:01.434Z,158.66
2019-04-10T16:40:04.363Z,0.00
2019-04-10T16:45:01.796Z,0.00
2019-04-10T16:50:01.538Z,0.00
2019-04-10T16:55:01.177Z,0.00
2019-04-10T17:00:02.918Z,0.00
2019-04-10T17:05:01.141Z,0.00
2019-04-10T17:10:12.633Z,0.00
2019-04-10T17:15:01.857Z,0.00
2019-04-10T17:20:02.443Z,0.00
2019-04-10T17:25:02.241Z,0.00
2019-04-10T17:30:01.351Z,0.00
2019-04-10T17:35:01.485Z,0.00
2019-04-10T17:40:02.234Z,0.00
2019-04-10T17:45:02.889Z,0.00
2019-04-10T17:50:01.424Z,0.00
2019-04-10T17:55:02.068Z,0.00
2019-04-10T18:00:01.136Z,0.00
2019-04-10T18:05:02.362Z,0.00
2019-04-10T18:10:02.374Z,0.00
2019-04-10T18:15:02.051Z,0.00
2019-04-10T18:20:01.391Z,0.00
2019-04-10T18:25:01.739Z,0.00
2019-04-10T18:30:01.269Z,0.00
2019-04-10T18:35:02.780Z,0.00
2019-04-10T18:40:01.130Z,0.00
2019-04-10T18:45:01.820Z,0.00
2019-04-10T18:50:02.747Z,0.00
2019-04-10T18:55:01.195Z,0.00
2019-04-10T19:00:01.522Z,0.00
2019-04-10T19:05:01.500Z,0.00
2019-04-10T19:10:02.150Z,0.00
2019-04-10T19:15:01.145Z,0.00
2019-04-10T19:20:02.196Z,0.00
2019-04-10T19:25:01.312Z,0.00
2019-04-10T19:30:02.650Z,0.00
2019-04-10T19:35:02.509Z,0.00
2019-04-10T19:40:01.355Z,0.00
2019-04-10T19:45:01.847Z,0.00
2019-04-10T19:50:01.505Z,0.00
2019-04-10T19:55:01.214Z,0.00
2019-04-10T20:00:01.613Z,0.00
2019-04-10T20:05:01.721Z,0.00
2019-04-10T20:10:03.561Z,0.00
2019-04-10T20:15:02.458Z,0.00
2019-04-10T20:20:02.743Z,0.00
2019-04-10T20:25:02.140Z,0.00
2019-04-10T20:30:01.584Z,0.00
2019-04-10T20:35:02.240Z,0.00
2019-04-10T20:40:01.331Z,84.39
2019-04-10T20:45:01.614Z,90.00
2019-04-10T20:50:01.935Z,90.00
2019-04-10T20:55:01.609Z,90.00
2019-04-10T21:00:01.879Z,90.00
2019-04-10T21:05:06.096Z,90.00
2019-04-10T21:10:01.565Z,90.00
2019-04-10T21:15:01.351Z,90.00
2019-04-10T21:20:02.209Z,90.00
2019-04-10T21:25:01.157Z,90.00
2019-04-10T21:30:01.954Z,90.00
2019-04-10T21:35:02.057Z,90.00
2019-04-10T21:40:02.738Z,90.00
2019-04-10T21:45:01.863Z,90.00
2019-04-10T21:50:01.105Z,73.06
2019-04-10T21:55:02.497Z,0.00
2019-04-10T22:00:01.598Z,0.00
2019-04-10T22:05:01.382Z,0.00
2019-04-10T22:10:01.550Z,0.00
2019-04-10T22:15:01.409Z,25.37
2019-04-10T22:20:01.346Z,59.69
2019-04-10T22:25:01.413Z,45.00
2019-04-10T22:30:02.808Z,45.00
2019-04-10T22:35:01.160Z,45.00
2019-04-10T22:40:01.074Z,45.00
2019-04-10T22:45:02.597Z,45.00
2019-04-10T22:50:01.108Z,45.00
2019-04-10T22:55:01.409Z,45.00
2019-04-10T23:00:01.101Z,45.00
2019-04-10T23:05:01.992Z,45.00
2019-04-10T23:10:01.058Z,45.00
2019-04-10T23:15:01.192Z,45.00
2019-04-10T23:20:01.038Z,77.51
2019-04-10T23:25:02.638Z,135.00
2019-04-10T23:30:02.491Z,135.00
2019-04-10T23:35:01.260Z,135.00
2019-04-10T23:40:01.076Z,96.59
2019-04-10T23:45:01.717Z,90.00
2019-04-10T23:50:01.899Z,78.14
2019-04-10T23:55:01.815Z,308.90
